LN-KFK er ferget til Eggemoen PDF Skriv ut E-post
Skrevet av Dmytro Yakovenko   
onsdag 16. august 2017 22:21

LN-KFK er i dag, 14. september, ferget til Eggemoen for 100t ettersyn. Vi forventer å få flyet tilbake i neste uke. Mer info kommer på Facebook etter hvert.

Sist oppdatert torsdag 14. september 2017 16:22
 
 
METAR
2018/09/24 00:20 ENCN 240020Z AUTO 32009KT 280V360 9999 FEW140/// 09/M01 Q1013
TAF
2018/09/23 18:36 TAF TAF ENCN 231700Z 2318/2321 32012KT CAVOK
LN-KFK
Operativ VFR-natt
VFR dag
06:36 - 20:02
Brannvakt
Inaktiv
Banner
Banner
Banner
Banner
Banner